Time;durP1;ratioP1;P1;durP2;ratioP2;P2;SDS_P1;SDS_P2;PMS_P1;PMS_P2;Temp;Humidity;BMP_temperature;BMP_pressure;BME280_temperature;BME280_humidity;BME280_pressure;Samples;Min_cycle;Max_cycle;Signal;HPM_P1;HPM_P2
2023/10/01 00:01:00;;;;;;;17.43;6.23;;;;;;;9.34;91.50;100911.75;4204383;28;20237;-71
2023/10/01 00:03:27;;;;;;;16.40;5.90;;;;;;;9.35;91.48;100908.94;4198015;28;20252;-73
2023/10/01 00:05:54;;;;;;;19.87;5.80;;;;;;;9.30;91.62;100903.03;4203914;28;22283;-71
2023/10/01 00:08:21;;;;;;;20.57;6.77;;;;;;;9.30;91.61;100903.03;4194067;28;20947;-70
2023/10/01 00:10:48;;;;;;;21.60;6.63;;;;;;;9.24;92.06;100902.72;4192699;28;20251;-70
2023/10/01 00:13:15;;;;;;;24.47;6.13;;;;;;;9.24;92.01;100891.91;4204295;28;20245;-72
2023/10/01 00:15:42;;;;;;;18.40;6.67;;;;;;;9.16;92.34;100896.09;4202670;28;20571;-72
2023/10/01 00:18:09;;;;;;;19.93;7.80;;;;;;;9.19;92.66;100905.78;4197096;28;20234;-72
2023/10/01 00:20:36;;;;;;;20.30;6.60;;;;;;;9.18;92.37;100902.22;4195869;28;20236;-71
2023/10/01 00:23:03;;;;;;;17.77;6.10;;;;;;;9.24;91.89;100895.44;4199859;28;20245;-70
2023/10/01 00:25:32;;;;;;;23.53;6.70;;;;;;;9.26;92.09;100895.31;4203719;28;20321;-72
2023/10/01 00:27:59;;;;;;;28.23;6.17;;;;;;;9.28;91.80;100893.34;4199115;28;20244;-72
2023/10/01 00:30:31;;;;;;;24.40;6.70;;;;;;;9.31;91.42;100883.16;4200396;28;20321;-72
2023/10/01 00:33:00;;;;;;;21.57;6.40;;;;;;;9.20;91.67;100886.75;4191641;28;20252;-70
2023/10/01 00:35:27;;;;;;;19.97;6.67;;;;;;;9.18;92.25;100891.41;4198589;28;20232;-69
2023/10/01 00:37:54;;;;;;;19.23;6.47;;;;;;;9.23;91.83;100879.38;4197737;28;20241;-73
2023/10/01 00:40:20;;;;;;;18.57;5.77;;;;;;;9.20;91.94;100883.19;4202478;28;20309;-71
2023/10/01 00:42:47;;;;;;;22.63;6.13;;;;;;;9.31;91.48;100880.44;4190159;28;21191;-72
2023/10/01 00:45:14;;;;;;;20.33;5.83;;;;;;;9.26;91.47;100881.81;4200790;28;21850;-70
2023/10/01 00:47:46;;;;;;;18.03;5.93;;;;;;;9.27;91.62;100883.53;4208365;28;22945;-71
2023/10/01 00:50:21;;;;;;;15.73;5.67;;;;;;;9.15;92.07;100883.56;4195617;28;20239;-70
2023/10/01 00:52:51;;;;;;;20.27;6.13;;;;;;;9.17;92.23;100889.72;4200113;28;21110;-72
2023/10/01 00:55:20;;;;;;;28.87;6.47;;;;;;;9.19;92.32;100887.72;4193870;28;20234;-70
2023/10/01 00:57:49;;;;;;;23.03;6.20;;;;;;;9.22;92.62;100889.31;4199393;28;20385;-69
2023/10/01 01:00:16;;;;;;;26.10;6.53;;;;;;;9.22;92.15;100889.31;4196166;28;20237;-70
2023/10/01 01:02:58;;;;;;;20.13;5.70;;;;;;;9.23;92.46;100882.94;4209455;28;20255;-70
2023/10/01 01:05:35;;;;;;;16.33;5.87;;;;;;;9.23;91.96;100884.78;4200311;28;20321;-70
2023/10/01 01:08:22;;;;;;;23.30;5.90;;;;;;;9.28;91.64;100883.41;4206177;28;21740;-72
2023/10/01 01:10:51;;;;;;;24.03;6.23;;;;;;;9.10;92.17;100877.69;4200974;28;20258;-69
2023/10/01 01:13:18;;;;;;;20.37;6.60;;;;;;;9.11;92.65;100886.66;4204818;28;20304;-70
2023/10/01 01:15:47;;;;;;;18.27;6.10;;;;;;;9.14;92.37;100883.72;4200640;28;20266;-72
2023/10/01 01:18:14;;;;;;;19.30;5.90;;;;;;;9.07;92.82;100879.78;4190359;28;20329;-70
2023/10/01 01:20:45;;;;;;;25.53;6.83;;;;;;;9.01;93.29;100884.72;4201137;28;20351;-71
2023/10/01 01:23:19;;;;;;;25.20;6.20;;;;;;;9.10;93.05;100882.25;4201002;28;20310;-71
2023/10/01 01:25:46;;;;;;;22.67;6.27;;;;;;;9.06;93.20;100878.09;4204652;28;21970;-69
2023/10/01 01:28:14;;;;;;;23.10;6.23;;;;;;;9.14;92.81;100879.16;4195289;28;20264;-72
2023/10/01 01:30:42;;;;;;;30.03;6.70;;;;;;;9.15;92.66;100882.69;4204189;28;20233;-69
2023/10/01 01:33:13;;;;;;;26.20;6.20;;;;;;;9.13;92.85;100880.13;4200682;28;20241;-71
2023/10/01 01:35:42;;;;;;;24.50;6.90;;;;;;;9.19;92.61;100881.47;4205926;28;20418;-70
2023/10/01 01:38:10;;;;;;;19.70;6.67;;;;;;;9.18;92.53;100869.81;4195942;28;20707;-73
2023/10/01 01:40:40;;;;;;;18.77;5.73;;;;;;;9.32;92.44;100857.84;4191243;28;20241;-72
2023/10/01 01:43:16;;;;;;;20.23;6.43;;;;;;;9.43;91.06;100862.34;4198881;28;21780;-71
2023/10/01 01:45:48;;;;;;;17.63;6.07;;;;;;;9.37;91.29;100854.75;4203853;28;20236;-70
2023/10/01 01:51:10;;;;;;;20.87;6.57;;;;;;;9.35;91.28;100859.44;4196119;28;20319;-70
2023/10/01 01:53:41;;;;;;;13.57;5.77;;;;;;;9.33;91.46;100853.28;4204060;28;21223;-70
2023/10/01 01:56:16;;;;;;;21.77;5.73;;;;;;;9.26;91.50;100866.47;4205774;28;21701;-70
2023/10/01 01:58:43;;;;;;;26.40;6.43;;;;;;;9.16;92.44;100865.53;4199773;28;20612;-74
2023/10/01 02:03:46;;;;;;;15.83;6.10;;;;;;;9.17;92.29;100856.44;4198982;28;20495;-70
2023/10/01 02:06:26;;;;;;;22.63;6.43;;;;;;;9.24;92.12;100854.09;4196499;28;22054;-71
2023/10/01 02:08:57;;;;;;;27.87;6.80;;;;;;;9.21;92.62;100860.63;4198551;28;21123;-73
2023/10/01 02:11:25;;;;;;;24.87;6.10;;;;;;;9.29;92.04;100860.78;4207331;28;20240;-72
2023/10/01 02:13:54;;;;;;;25.17;6.60;;;;;;;9.38;91.63;100867.28;4197619;28;23040;-71
2023/10/01 02:19:11;;;;;;;18.07;6.13;;;;;;;9.23;91.97;100855.91;4204940;28;20473;-69
2023/10/01 02:21:49;;;;;;;23.17;6.33;;;;;;;9.24;92.53;100848.69;4193076;28;21862;-69
2023/10/01 02:24:37;;;;;;;23.17;7.33;;;;;;;9.28;92.42;100844.72;4200249;28;20249;-71
2023/10/01 02:27:06;;;;;;;20.60;6.00;;;;;;;9.45;91.57;100849.56;4204080;28;20312;-70
2023/10/01 02:29:32;;;;;;;20.20;6.37;;;;;;;9.41;91.17;100849.97;4197885;28;20318;-71
2023/10/01 02:32:04;;;;;;;22.37;5.70;;;;;;;9.35;91.71;100854.03;4194596;28;21689;-70
2023/10/01 02:34:32;;;;;;;19.57;6.10;;;;;;;9.32;91.70;100857.00;4196162;28;20232;-73
2023/10/01 02:37:03;;;;;;;18.97;5.77;;;;;;;9.30;91.93;100857.13;4206894;28;20248;-69
2023/10/01 02:39:30;;;;;;;19.30;5.77;;;;;;;9.31;92.07;100856.13;4218705;28;23708;-70
2023/10/01 02:42:32;;;;;;;22.13;6.57;;;;;;;9.21;92.32;100849.81;4198898;28;20260;-72
2023/10/01 02:44:53;;;;;;;22.00;6.77;;;;;;;9.18;92.86;100859.00;4223556;28;21814;-69
2023/10/01 02:47:23;;;;;;;22.73;6.30;;;;;;;9.42;91.62;100846.28;4195980;28;20311;-70
2023/10/01 02:49:53;;;;;;;23.73;6.63;;;;;;;9.29;92.26;100847.28;4203152;28;20278;-70
2023/10/01 02:52:22;;;;;;;18.47;6.33;;;;;;;9.33;92.54;100843.34;4197647;28;21219;-70
2023/10/01 02:54:57;;;;;;;19.07;6.80;;;;;;;9.45;91.58;100849.56;4197642;28;20481;-71
2023/10/01 02:57:24;;;;;;;15.27;5.47;;;;;;;9.52;91.41;100850.75;4205348;28;20242;-70
2023/10/01 03:02:41;;;;;;;19.23;5.80;;;;;;;9.50;91.55;100846.47;4198911;28;20316;-70
2023/10/01 03:05:18;;;;;;;14.40;6.30;;;;;;;9.47;91.64;100847.59;4201960;28;20292;-70
2023/10/01 03:07:50;;;;;;;21.30;5.77;;;;;;;9.64;90.94;100846.16;4229645;28;20232;-69
2023/10/01 03:10:29;;;;;;;18.90;5.93;;;;;;;9.60;90.86;100851.97;4205089;28;20240;-71
2023/10/01 03:13:14;;;;;;;19.23;5.80;;;;;;;9.48;91.68;100852.00;4200162;28;25544;-69
2023/10/01 03:15:41;;;;;;;20.60;6.17;;;;;;;9.55;91.50;100840.69;4208090;28;20221;-71
2023/10/01 03:18:33;;;;;;;25.07;5.53;;;;;;;9.47;92.16;100839.50;4208800;28;20229;-68
2023/10/01 03:25:59;;;;;;;21.87;6.00;;;;;;;9.60;91.81;100842.00;4206867;28;20311;-69
2023/10/01 03:28:31;;;;;;;18.40;5.27;;;;;;;9.52;92.42;100849.88;4198895;28;20294;-72
2023/10/01 03:31:09;;;;;;;28.63;6.33;;;;;;;9.51;92.45;100850.91;4199335;28;20769;-69
2023/10/01 03:33:40;;;;;;;21.03;5.70;;;;;;;9.43;92.89;100854.25;4211349;28;20914;-71
2023/10/01 03:36:09;;;;;;;19.93;5.73;;;;;;;9.41;93.15;100845.41;4205486;28;20251;-68
2023/10/01 03:38:44;;;;;;;19.20;5.50;;;;;;;9.48;92.99;100837.63;4212940;28;20245;-70
2023/10/01 03:41:20;;;;;;;17.37;5.30;;;;;;;9.59;92.89;100845.69;4205919;28;20229;-69
2023/10/01 03:43:50;;;;;;;25.30;5.90;;;;;;;9.56;92.52;100840.56;4203326;28;20221;-71
2023/10/01 03:57:17;;;;;;;19.20;4.87;;;;;;;9.82;91.43;100846.41;4208105;28;20245;-70
2023/10/01 03:59:54;;;;;;;13.87;4.90;;;;;;;9.83;91.03;100845.44;4202962;28;20292;-71
2023/10/01 04:02:56;;;;;;;14.77;4.83;;;;;;;9.78;91.82;100841.41;4203337;28;20228;-69
2023/10/01 04:05:22;;;;;;;16.90;4.80;;;;;;;9.83;91.89;100847.25;4203952;28;20230;-69
2023/10/01 04:07:49;;;;;;;14.67;4.67;;;;;;;9.77;92.12;100850.50;4206169;28;20256;-71
2023/10/01 04:12:58;;;;;;;21.20;5.10;;;;;;;9.65;92.97;100852.41;4211921;28;21149;-70
2023/10/01 04:15:31;;;;;;;24.30;5.77;;;;;;;9.67;92.96;100853.16;4203450;28;25569;-71
2023/10/01 04:20:47;;;;;;;16.00;4.90;;;;;;;9.91;92.49;100843.91;4203690;28;20340;-70
2023/10/01 04:23:30;;;;;;;14.90;4.70;;;;;;;9.83;92.38;100840.03;4199408;28;20243;-68
2023/10/01 04:26:06;;;;;;;26.33;5.33;;;;;;;9.90;92.39;100848.44;4205379;28;20276;-70
2023/10/01 04:28:37;;;;;;;12.27;4.33;;;;;;;9.95;92.42;100850.75;4212702;28;20240;-70
2023/10/01 04:31:09;;;;;;;15.33;4.40;;;;;;;9.85;92.69;100841.75;4199392;28;20319;-69
2023/10/01 04:33:40;;;;;;;25.87;5.63;;;;;;;9.70;93.48;100852.03;4202006;28;20659;-71
2023/10/01 04:36:11;;;;;;;17.13;4.73;;;;;;;9.66;93.85;100849.59;4213865;28;20233;-70
2023/10/01 04:38:41;;;;;;;13.00;4.93;;;;;;;9.65;93.89;100847.88;4216068;28;20866;-72
2023/10/01 04:41:18;;;;;;;17.93;5.70;;;;;;;9.67;93.92;100829.66;4210208;28;22905;-69
2023/10/01 04:43:52;;;;;;;15.63;4.90;;;;;;;9.68;94.15;100835.94;4205099;28;20300;-70
2023/10/01 04:46:29;;;;;;;15.43;4.50;;;;;;;9.64;94.27;100832.66;4215180;28;21686;-70
2023/10/01 04:48:57;;;;;;;16.20;4.57;;;;;;;9.70;94.21;100830.41;4201951;28;22796;-70
2023/10/01 04:51:44;;;;;;;14.23;4.43;;;;;;;9.72;94.02;100818.44;4217849;28;20527;-76
2023/10/01 04:54:21;;;;;;;21.03;6.23;;;;;;;9.81;93.83;100823.06;4222651;28;20429;-72
2023/10/01 04:56:48;;;;;;;20.00;4.77;;;;;;;9.86;93.91;100832.66;4222985;28;20232;-69
2023/10/01 04:59:16;;;;;;;26.77;5.10;;;;;;;10.01;93.74;100831.28;4204612;28;20502;-73
2023/10/01 05:01:43;;;;;;;23.10;4.60;;;;;;;9.99;92.77;100838.69;4215587;28;20241;-71
2023/10/01 05:04:14;;;;;;;21.20;4.60;;;;;;;10.01;93.48;100844.81;4197341;28;20239;-71
2023/10/01 05:06:43;;;;;;;17.97;4.87;;;;;;;10.08;93.11;100842.44;4198898;28;20233;-72
2023/10/01 05:09:14;;;;;;;20.97;4.53;;;;;;;10.14;92.88;100839.19;4217180;28;20233;-72
2023/10/01 05:11:42;;;;;;;20.53;4.70;;;;;;;10.33;91.67;100830.31;4210258;28;20241;-67
2023/10/01 05:14:12;;;;;;;17.30;4.77;;;;;;;10.40;91.01;100831.50;4200122;28;22804;-67
2023/10/01 05:16:38;;;;;;;15.70;4.67;;;;;;;10.47;90.37;100834.53;4211017;28;20235;-70
2023/10/01 05:19:13;;;;;;;16.43;4.40;;;;;;;10.53;89.98;100820.44;4201207;28;20240;-68
2023/10/01 05:21:46;;;;;;;20.17;4.30;;;;;;;10.64;89.96;100827.59;4198181;28;22591;-68
2023/10/01 05:24:34;;;;;;;15.00;4.30;;;;;;;10.65;89.75;100833.88;4200064;28;20237;-67
2023/10/01 05:27:09;;;;;;;16.37;4.40;;;;;;;10.65;89.80;100840.13;4201195;28;25418;-70
2023/10/01 05:29:39;;;;;;;18.37;5.07;;;;;;;10.51;90.41;100838.66;4196791;28;20305;-67
2023/10/01 05:32:06;;;;;;;20.63;4.40;;;;;;;10.42;91.41;100837.66;4204856;28;20237;-67
2023/10/01 05:34:33;;;;;;;16.70;4.03;;;;;;;10.41;91.46;100851.31;4212360;28;21180;-69
2023/10/01 05:37:12;;;;;;;19.10;4.50;;;;;;;10.37;91.86;100848.03;4231763;28;20998;-67
2023/10/01 05:39:58;;;;;;;18.17;4.50;;;;;;;10.35;91.72;100851.84;4216661;28;20260;-71
2023/10/01 05:42:40;;;;;;;18.10;3.57;;;;;;;10.32;92.11;100855.66;4225193;28;22174;-68
2023/10/01 05:45:18;;;;;;;12.07;3.80;;;;;;;10.32;92.38;100858.34;4220796;28;21049;-70
2023/10/01 05:47:51;;;;;;;9.53;3.53;;;;;;;10.42;92.07;100851.19;4211623;28;20224;-70
2023/10/01 05:50:19;;;;;;;16.90;4.00;;;;;;;10.41;92.20;100851.31;4208199;28;23389;-72
2023/10/01 05:52:46;;;;;;;14.57;4.23;;;;;;;10.41;92.31;100838.63;4205492;28;20488;-70
2023/10/01 05:55:15;;;;;;;19.10;4.53;;;;;;;10.44;92.35;100849.19;4200835;28;20402;-67
2023/10/01 05:57:43;;;;;;;17.70;4.20;;;;;;;10.54;92.06;100841.09;4224801;28;21910;-68
2023/10/01 06:00:25;;;;;;;19.80;4.10;;;;;;;10.65;91.96;100844.72;4219977;28;20696;-68
2023/10/01 06:03:00;;;;;;;15.60;4.20;;;;;;;10.63;91.67;100847.53;4211177;28;20367;-76
2023/10/01 06:05:50;;;;;;;20.87;4.37;;;;;;;10.88;91.09;100853.44;4204422;28;20359;-69
2023/10/01 06:08:24;;;;;;;18.27;4.47;;;;;;;11.02;90.06;100854.91;4219872;28;20236;-69
2023/10/01 06:11:05;;;;;;;17.80;4.07;;;;;;;11.06;90.17;100859.91;4229537;28;23255;-68
2023/10/01 06:13:38;;;;;;;22.17;4.60;;;;;;;11.07;90.39;100864.31;4203156;28;20229;-69
2023/10/01 06:16:16;;;;;;;15.33;4.20;;;;;;;11.11;89.94;100867.59;4224864;28;20330;-69
2023/10/01 06:18:52;;;;;;;15.63;4.50;;;;;;;11.24;89.30;100859.22;4207436;28;20232;-69
2023/10/01 06:21:27;;;;;;;19.13;4.27;;;;;;;11.13;89.43;100860.19;4215715;28;25768;-67
2023/10/01 06:23:58;;;;;;;16.47;4.57;;;;;;;11.21;89.60;100854.94;4211020;28;20317;-66
2023/10/01 06:26:42;;;;;;;14.93;4.20;;;;;;;11.15;89.44;100850.06;4194196;28;22901;-74
2023/10/01 06:29:12;;;;;;;20.27;4.40;;;;;;;11.20;89.55;100868.63;4208045;28;20236;-67
2023/10/01 06:34:30;;;;;;;12.77;3.80;;;;;;;11.50;88.18;100862.22;4193975;28;21153;-67
2023/10/01 06:37:01;;;;;;;16.03;4.57;;;;;;;11.59;87.73;100868.66;4205668;28;21572;-70
2023/10/01 06:39:35;;;;;;;18.10;4.70;;;;;;;11.35;88.74;100866.34;4215194;28;20319;-68
2023/10/01 06:42:23;;;;;;;17.33;4.73;;;;;;;11.26;89.13;100871.59;4212021;28;20411;-69
2023/10/01 06:44:54;;;;;;;18.43;4.37;;;;;;;11.23;89.19;100862.91;4187752;28;20888;-71
2023/10/01 06:47:23;;;;;;;14.03;4.23;;;;;;;11.47;88.22;100854.38;4204969;28;21671;-68
2023/10/01 06:49:57;;;;;;;15.07;3.90;;;;;;;11.45;88.52;100859.09;4214211;28;22749;-67
2023/10/01 06:52:29;;;;;;;19.17;4.27;;;;;;;11.41;88.84;100858.50;4212245;28;22020;-69
2023/10/01 06:54:57;;;;;;;16.13;4.47;;;;;;;11.42;88.54;100851.22;4204945;28;20424;-68
2023/10/01 06:57:27;;;;;;;17.30;4.27;;;;;;;11.44;88.56;100860.06;4207402;28;20229;-68
2023/10/01 06:59:56;;;;;;;16.67;4.17;;;;;;;11.43;88.18;100861.06;4201245;28;20311;-69
2023/10/01 07:02:27;;;;;;;14.13;4.17;;;;;;;11.61;87.66;100855.78;4195736;28;20267;-69
2023/10/01 07:04:56;;;;;;;19.50;4.00;;;;;;;11.57;88.16;100857.09;4199655;28;20239;-68
2023/10/01 07:07:40;;;;;;;13.83;4.40;;;;;;;11.65;88.25;100862.66;4201486;28;20932;-70
2023/10/01 07:10:10;;;;;;;18.10;4.60;;;;;;;11.84;87.59;100855.47;4197103;28;20267;-70
2023/10/01 07:12:38;;;;;;;19.13;4.70;;;;;;;11.78;87.34;100851.50;4201962;28;20335;-70
2023/10/01 07:15:06;;;;;;;17.97;4.67;;;;;;;11.80;87.22;100859.47;4199700;28;20237;-69
2023/10/01 07:17:35;;;;;;;15.93;3.47;;;;;;;11.95;86.33;100858.03;4225139;28;20928;-69
2023/10/01 07:20:18;;;;;;;14.33;4.63;;;;;;;11.95;86.68;100859.88;4197920;28;20241;-69
2023/10/01 07:22:46;;;;;;;13.83;4.30;;;;;;;12.13;85.95;100855.44;4198074;28;20887;-68
2023/10/01 07:25:37;;;;;;;19.20;3.47;;;;;;;12.38;84.84;100865.78;4209418;28;20252;-70
2023/10/01 07:28:07;;;;;;;14.93;3.60;;;;;;;12.45;84.19;100873.19;4217383;28;20389;-69
2023/10/01 07:30:45;;;;;;;14.30;3.87;;;;;;;12.47;84.03;100868.44;4202563;28;20312;-69
2023/10/01 07:33:20;;;;;;;17.57;3.23;;;;;;;12.63;83.77;100856.97;4213128;28;20443;-70
2023/10/01 07:36:01;;;;;;;18.67;4.30;;;;;;;12.71;83.40;100858.06;4202877;28;22263;-72
2023/10/01 07:38:32;;;;;;;14.60;4.00;;;;;;;12.58;83.01;100858.41;4205666;28;20754;-68
2023/10/01 07:41:07;;;;;;;16.37;3.80;;;;;;;12.72;82.81;100855.19;4214047;28;20239;-72
2023/10/01 07:43:34;;;;;;;18.60;3.70;;;;;;;12.82;82.71;100860.56;4206569;28;22630;-71
2023/10/01 07:46:02;;;;;;;22.43;3.53;;;;;;;12.83;82.47;100870.44;4204093;28;21886;-72
2023/10/01 07:48:29;;;;;;;21.70;4.23;;;;;;;12.82;82.51;100861.44;4211718;28;20951;-66
2023/10/01 07:50:58;;;;;;;14.50;3.63;;;;;;;13.06;81.82;100864.56;4233973;28;20292;-71
2023/10/01 07:53:42;;;;;;;17.90;3.73;;;;;;;13.35;80.78;100861.66;4215587;28;21181;-73
2023/10/01 07:56:15;;;;;;;19.00;4.07;;;;;;;13.28;79.94;100857.84;4188576;28;20250;-67
2023/10/01 07:58:47;;;;;;;15.67;3.70;;;;;;;13.31;79.71;100863.84;4199166;28;20285;-69
2023/10/01 08:02:07;;;;;;;14.90;4.37;;;;;;;13.47;79.21;100859.59;4201987;28;20291;-73
2023/10/01 08:04:50;;;;;;;13.63;4.10;;;;;;;13.60;79.16;100870.06;4201698;28;20244;-71
2023/10/01 08:07:06;;;;;;;20.83;3.47;;;;;;;13.72;78.55;100871.53;4200854;28;25159;-71
2023/10/01 08:09:33;;;;;;;17.47;3.70;;;;;;;13.77;77.95;100861.03;4191652;28;20248;-72
2023/10/01 08:12:06;;;;;;;14.53;4.03;;;;;;;13.83;77.64;100862.25;4195123;28;21727;-72
2023/10/01 08:14:33;;;;;;;12.47;3.20;;;;;;;13.90;77.52;100865.19;4205023;28;20232;-71
2023/10/01 08:17:02;;;;;;;19.07;4.13;;;;;;;13.98;77.48;100864.41;4189545;28;20873;-68
2023/10/01 08:19:44;;;;;;;18.20;3.30;;;;;;;13.87;77.64;100860.91;4188561;28;21731;-69
2023/10/01 08:22:13;;;;;;;16.30;3.73;;;;;;;13.91;78.07;100869.63;4216589;28;22275;-73
2023/10/01 08:24:45;;;;;;;13.63;3.87;;;;;;;13.89;78.57;100863.50;4221038;28;20237;-70
2023/10/01 08:27:12;;;;;;;23.63;4.10;;;;;;;13.73;78.97;100864.22;4203865;28;25799;-72
2023/10/01 08:32:37;;;;;;;17.77;4.33;;;;;;;13.65;78.30;100858.69;4210185;28;25371;-71
2023/10/01 08:35:22;;;;;;;16.90;4.27;;;;;;;13.71;78.30;100861.66;4210005;28;21659;-71
2023/10/01 08:37:49;;;;;;;15.33;4.37;;;;;;;13.73;78.59;100858.78;4193425;28;20387;-74
2023/10/01 08:40:17;;;;;;;16.50;3.67;;;;;;;13.71;77.85;100860.81;4228342;28;20459;-70
2023/10/01 08:42:44;;;;;;;24.60;3.77;;;;;;;13.85;77.36;100856.66;4232106;28;20296;-71
2023/10/01 08:45:12;;;;;;;17.30;3.60;;;;;;;13.95;77.07;100860.13;4206177;28;20241;-76
2023/10/01 08:47:39;;;;;;;11.87;3.17;;;;;;;14.04;76.26;100855.59;4213328;28;20239;-73
2023/10/01 08:52:56;;;;;;;18.53;3.87;;;;;;;13.98;76.83;100862.53;4230578;28;21336;-77
2023/10/01 09:00:51;;;;;;;14.57;3.77;;;;;;;14.22;76.37;100869.16;4188474;28;20241;-69
2023/10/01 09:03:30;;;;;;;11.93;3.90;;;;;;;14.38;75.92;100871.97;4215876;28;20232;-69
2023/10/01 09:06:24;;;;;;;14.93;4.00;;;;;;;14.36;75.72;100867.72;4217249;28;20406;-71
2023/10/01 09:08:59;;;;;;;15.27;3.73;;;;;;;14.50;75.04;100877.16;4213311;28;20243;-69
2023/10/01 09:11:42;;;;;;;11.43;3.37;;;;;;;14.47;75.19;100870.13;4211693;28;22227;-69
2023/10/01 09:14:25;;;;;;;13.50;4.27;;;;;;;14.57;75.04;100880.94;4184801;28;20265;-71
2023/10/01 09:17:00;;;;;;;17.03;3.70;;;;;;;14.59;75.22;100876.16;4206036;28;20380;-71
2023/10/01 09:19:43;;;;;;;23.03;4.03;;;;;;;14.97;73.80;100873.97;4196414;28;21500;-70
2023/10/01 09:22:22;;;;;;;17.37;3.93;;;;;;;14.95;73.14;100876.00;4216662;28;20238;-66
2023/10/01 09:25:01;;;;;;;21.23;4.47;;;;;;;14.84;73.63;100873.56;4190612;28;20240;-73
2023/10/01 09:27:33;;;;;;;15.37;3.60;;;;;;;14.76;73.41;100874.41;4218755;28;21173;-68
2023/10/01 09:30:26;;;;;;;12.63;3.90;;;;;;;15.11;73.11;100877.06;4215818;28;20316;-71
2023/10/01 09:32:55;;;;;;;13.67;3.57;;;;;;;15.52;71.56;100879.88;4205841;28;20230;-71
2023/10/01 09:35:38;;;;;;;12.03;3.80;;;;;;;15.55;71.78;100885.00;4194258;28;20563;-69
2023/10/01 09:38:10;;;;;;;16.30;4.28;;;;;;;15.79;69.52;100866.91;4210964;28;20991;-69
2023/10/01 09:40:42;;;;;;;11.17;3.40;;;;;;;15.94;69.92;100869.84;4219129;28;20295;-70
2023/10/01 09:43:33;;;;;;;17.23;3.33;;;;;;;15.92;69.45;100869.16;4204592;28;21010;-72
2023/10/01 09:46:01;;;;;;;12.93;3.37;;;;;;;15.93;69.10;100868.13;4203378;28;20617;-69
2023/10/01 09:48:36;;;;;;;19.27;3.30;;;;;;;15.81;70.33;100873.91;4202737;28;22722;-68
2023/10/01 09:51:13;;;;;;;11.77;3.20;;;;;;;15.80;69.63;100877.66;4205738;28;20576;-70
2023/10/01 09:53:54;;;;;;;13.27;3.57;;;;;;;15.88;69.47;100868.63;4216363;28;22317;-68
2023/10/01 09:56:26;;;;;;;11.53;3.07;;;;;;;15.86;69.01;100867.97;4205665;28;20679;-68
2023/10/01 09:59:03;;;;;;;13.57;3.10;;;;;;;15.78;69.08;100874.25;4205668;28;20560;-71
2023/10/01 10:01:33;;;;;;;9.93;2.77;;;;;;;15.78;69.69;100874.25;4248648;28;25639;-73
2023/10/01 10:04:03;;;;;;;12.87;3.00;;;;;;;16.02;68.88;100869.84;4206746;28;20403;-72
2023/10/01 10:06:31;;;;;;;13.37;3.43;;;;;;;16.18;69.03;100865.38;4194005;28;20229;-73
2023/10/01 10:09:04;;;;;;;13.87;3.10;;;;;;;16.50;67.57;100856.22;4223335;28;20248;-69
2023/10/01 10:11:36;;;;;;;14.30;3.20;;;;;;;16.44;66.48;100859.66;4225264;28;21881;-73
2023/10/01 10:14:24;;;;;;;9.93;2.77;;;;;;;16.51;67.08;100862.53;4210554;28;20431;-74
2023/10/01 10:16:58;;;;;;;11.33;2.90;;;;;;;16.40;67.41;100861.03;4223052;28;20245;-77
2023/10/01 10:19:31;;;;;;;13.97;2.93;;;;;;;16.22;67.62;100863.97;4208043;28;20273;-73
2023/10/01 10:24:31;;;;;;;12.07;2.90;;;;;;;16.97;65.39;100856.41;4200180;28;20963;-75
2023/10/01 10:27:08;;;;;;;7.87;2.30;;;;;;;16.82;65.55;100862.59;4216647;28;20241;-76
2023/10/01 10:29:56;;;;;;;11.63;2.20;;;;;;;16.86;65.68;100860.34;4215551;28;20233;-73
2023/10/01 10:32:33;;;;;;;11.17;2.60;;;;;;;17.23;63.71;100861.53;4218424;28;20455;-70
2023/10/01 10:35:03;;;;;;;10.87;2.40;;;;;;;16.86;63.79;100857.63;4192809;28;20233;-77
2023/10/01 10:37:36;;;;;;;10.07;2.47;;;;;;;17.09;63.47;100844.00;4216055;28;22181;-74
2023/10/01 10:42:46;;;;;;;10.93;2.70;;;;;;;16.66;63.34;100838.06;4207674;28;20263;-73
2023/10/01 10:45:23;;;;;;;5.83;2.20;;;;;;;16.63;63.86;100842.84;4236460;28;20637;-74
2023/10/01 10:48:04;;;;;;;8.40;2.10;;;;;;;16.63;63.54;100840.09;4215800;28;20557;-74
2023/10/01 10:50:48;;;;;;;10.70;2.67;;;;;;;16.54;63.22;100837.59;4206390;28;20291;-75
2023/10/01 10:53:19;;;;;;;10.20;1.93;;;;;;;16.96;62.24;100841.84;4196222;28;20226;-76
2023/10/01 10:56:10;;;;;;;6.43;1.70;;;;;;;17.02;60.21;100835.69;4208384;28;20251;-78
2023/10/01 10:58:44;;;;;;;12.27;2.40;;;;;;;16.98;60.83;100839.78;4211572;28;20411;-73
2023/10/01 11:01:16;;;;;;;7.97;2.20;;;;;;;17.03;60.12;100840.09;4208431;28;20243;-70
2023/10/01 11:04:02;;;;;;;9.23;2.60;;;;;;;17.07;58.77;100825.06;4195642;28;22612;-68
2023/10/01 11:06:42;;;;;;;8.27;2.03;;;;;;;17.24;58.74;100828.50;4201290;28;20870;-68
2023/10/01 11:09:23;;;;;;;9.30;2.40;;;;;;;17.18;59.50;100825.69;4208013;28;20233;-73
2023/10/01 11:12:18;;;;;;;9.57;1.93;;;;;;;17.25;59.02;100823.91;4201210;28;22251;-71
2023/10/01 11:17:48;;;;;;;6.00;2.07;;;;;;;17.40;58.65;100823.97;4213864;28;21360;-69
2023/10/01 11:20:22;;;;;;;6.83;1.90;;;;;;;17.58;57.72;100821.78;4206512;28;20610;-70
2023/10/01 11:22:54;;;;;;;8.13;2.17;;;;;;;17.72;57.38;100816.50;4203301;28;20245;-69
2023/10/01 11:25:22;;;;;;;5.90;1.70;;;;;;;17.92;56.86;100825.06;4209987;28;20241;-69
2023/10/01 11:28:05;;;;;;;7.80;2.10;;;;;;;17.28;57.08;100820.78;4222246;28;26511;-68
2023/10/01 11:30:34;;;;;;;12.37;2.43;;;;;;;17.42;57.52;100811.78;4207549;28;23183;-70
2023/10/01 11:33:02;;;;;;;12.97;2.43;;;;;;;17.35;57.46;100821.78;4230605;28;21359;-69
2023/10/01 11:35:33;;;;;;;7.57;2.07;;;;;;;17.15;57.09;100821.41;4195972;28;20376;-76
2023/10/01 11:38:14;;;;;;;12.27;1.90;;;;;;;17.17;57.33;100824.81;4224968;28;20593;-69
2023/10/01 11:43:36;;;;;;;7.43;1.90;;;;;;;17.13;57.73;100826.22;4217064;28;20233;-69
2023/10/01 11:46:21;;;;;;;10.43;2.30;;;;;;;17.09;58.33;100808.44;4207646;28;20598;-71
2023/10/01 11:48:57;;;;;;;13.00;2.57;;;;;;;17.10;59.45;100811.03;4237331;28;20850;-68
2023/10/01 11:52:00;;;;;;;7.50;2.03;;;;;;;17.13;58.81;100804.34;4194271;28;20731;-71
2023/10/01 11:54:43;;;;;;;5.63;2.00;;;;;;;17.43;58.42;100794.34;4220715;28;20237;-69
2023/10/01 11:57:25;;;;;;;10.00;2.13;;;;;;;17.46;59.12;100798.59;4202019;28;20312;-70
2023/10/01 11:59:57;;;;;;;7.70;2.07;;;;;;;17.74;57.44;100809.81;4220599;28;20300;-71
2023/10/01 12:02:32;;;;;;;9.27;2.50;;;;;;;17.61;57.44;100806.00;4193970;28;20291;-71
2023/10/01 12:05:06;;;;;;;11.57;2.00;;;;;;;17.50;56.88;100804.53;4201839;28;20822;-71
2023/10/01 12:07:43;;;;;;;6.83;1.90;;;;;;;17.36;57.74;100801.59;4252029;28;25062;-68
2023/10/01 12:10:31;;;;;;;8.67;2.13;;;;;;;17.55;56.72;100799.38;4204347;28;21136;-68
2023/10/01 12:12:59;;;;;;;8.50;1.90;;;;;;;17.48;56.92;100802.00;4222312;28;21741;-70
2023/10/01 12:15:40;;;;;;;9.67;2.27;;;;;;;17.43;55.57;100804.44;4212011;28;20300;-69
2023/10/01 12:18:08;;;;;;;7.37;2.07;;;;;;;17.34;55.69;100811.00;4201774;28;21082;-71
2023/10/01 12:20:47;;;;;;;8.60;1.90;;;;;;;17.53;55.64;100810.50;4199261;28;20247;-70
2023/10/01 12:23:15;;;;;;;5.00;1.67;;;;;;;17.31;55.97;100809.50;4208667;28;21064;-71
2023/10/01 12:28:29;;;;;;;12.87;1.80;;;;;;;17.26;56.06;100809.19;4215995;28;20240;-73
2023/10/01 12:30:58;;;;;;;6.67;1.70;;;;;;;17.52;55.11;100806.06;4190917;28;20283;-70
2023/10/01 12:33:39;;;;;;;16.67;2.23;;;;;;;17.42;55.47;100810.94;4196578;28;20325;-71
2023/10/01 12:41:47;;;;;;;9.07;1.87;;;;;;;17.11;55.87;100793.56;4201875;28;21577;-69
2023/10/01 12:44:24;;;;;;;6.80;1.50;;;;;;;17.48;55.82;100792.94;4203634;28;21194;-68
2023/10/01 12:46:52;;;;;;;12.07;1.87;;;;;;;17.95;54.71;100785.47;4188711;28;20290;-68
2023/10/01 12:49:19;;;;;;;7.73;1.93;;;;;;;18.01;53.99;100790.22;4192104;28;20623;-69
2023/10/01 12:51:48;;;;;;;5.70;1.73;;;;;;;18.16;53.47;100788.34;4223919;28;20233;-69
2023/10/01 12:54:27;;;;;;;8.10;1.77;;;;;;;18.15;54.29;100788.53;4192239;28;21384;-69
2023/10/01 12:57:18;;;;;;;7.07;2.20;;;;;;;17.70;56.43;100782.97;4240374;28;20249;-73